Time;durP1;ratioP1;P1;durP2;ratioP2;P2;SDS_P1;SDS_P2;PMS_P1;PMS_P2;Temp;Humidity;BMP_temperature;BMP_pressure;BME280_temperature;BME280_humidity;BME280_pressure;Samples;Min_cycle;Max_cycle;Signal;HPM_P1;HPM_P2
2023/07/26 00:02:11;;;;;;;;;;;;;;;30.90;43.57;98420.66;5036589;28;19912;-79
2023/07/26 00:04:36;;;;;;;;;;;;;;;30.91;43.67;98419.53;5054609;28;19915;-79
2023/07/26 00:07:02;;;;;;;;;;;;;;;30.89;44.38;98413.63;5054642;28;19915;-76
2023/07/26 00:09:27;;;;;;;;;;;;;;;30.90;43.44;98401.56;5054448;28;19908;-79
2023/07/26 00:11:52;;;;;;;;;;;;;;;30.89;43.63;98401.91;5054159;28;19909;-78
2023/07/26 00:14:17;;;;;;;;;;;;;;;30.89;43.78;98402.72;5054314;28;19931;-78
2023/07/26 00:16:43;;;;;;;;;;;;;;;30.88;43.53;98398.41;5054365;28;20003;-77
2023/07/26 00:19:08;;;;;;;;;;;;;;;30.88;43.54;98395.66;5054220;28;19909;-77
2023/07/26 00:21:33;;;;;;;;;;;;;;;30.87;43.28;98388.63;5054245;28;19909;-78
2023/07/26 00:23:59;;;;;;;;;;;;;;;30.89;43.35;98391.81;5054325;28;19908;-78
2023/07/26 00:26:25;;;;;;;;;;;;;;;30.89;43.30;98391.00;5054242;28;20003;-78
2023/07/26 00:28:50;;;;;;;;;;;;;;;30.87;43.84;98379.66;5054061;28;19987;-76
2023/07/26 00:31:16;;;;;;;;;;;;;;;30.87;43.49;98374.19;5054157;28;19956;-77
2023/07/26 00:33:41;;;;;;;;;;;;;;;30.86;43.48;98359.78;5036096;28;20381;-78
2023/07/26 00:36:06;;;;;;;;;;;;;;;30.81;43.33;98367.38;5054160;28;19981;-78
2023/07/26 00:38:31;;;;;;;;;;;;;;;30.81;43.18;98360.00;5053936;28;19956;-77
2023/07/26 00:40:57;;;;;;;;;;;;;;;30.82;43.26;98355.34;5053993;28;19908;-77
2023/07/26 00:43:22;;;;;;;;;;;;;;;30.81;43.57;98354.56;5053564;28;20379;-77
2023/07/26 00:45:48;;;;;;;;;;;;;;;30.82;43.13;98350.69;5053596;28;20341;-79
2023/07/26 00:48:13;;;;;;;;;;;;;;;30.81;43.51;98351.81;5053924;28;19908;-78
2023/07/26 00:50:40;;;;;;;;;;;;;;;30.81;42.90;98354.56;5053501;28;20043;-78
2023/07/26 00:53:05;;;;;;;;;;;;;;;30.81;43.20;98357.28;5035628;28;20000;-78
2023/07/26 00:55:31;;;;;;;;;;;;;;;30.81;43.18;98357.28;5035514;28;19999;-77
2023/07/26 00:57:57;;;;;;;;;;;;;;;30.81;43.36;98360.00;5053232;28;20449;-78
2023/07/26 01:00:22;;;;;;;;;;;;;;;30.80;43.15;98354.91;5053325;28;19942;-77
2023/07/26 01:02:47;;;;;;;;;;;;;;;30.79;42.56;98358.75;5053369;28;19909;-78
2023/07/26 01:05:13;;;;;;;;;;;;;;;30.74;42.83;98351.59;5053429;28;19995;-78
2023/07/26 01:07:57;;;;;;;;;;;;;;;30.74;42.57;98350.81;5053322;28;20389;-78
2023/07/26 01:10:25;;;;;;;;;;;;;;;30.69;42.42;98346.38;5035674;28;19909;-78
2023/07/26 01:12:57;;;;;;;;;;;;;;;30.68;42.29;98342.06;5035366;28;19913;-78
2023/07/26 01:15:34;;;;;;;;;;;;;;;30.66;42.16;98342.41;5053371;28;20286;-77
2023/07/26 01:18:15;;;;;;;;;;;;;;;30.63;42.12;98351.25;5053113;28;19962;-78
2023/07/26 01:20:41;;;;;;;;;;;;;;;30.60;42.11;98340.22;5035190;28;19908;-77
2023/07/26 01:23:07;;;;;;;;;;;;;;;30.57;41.89;98343.59;5034507;28;20348;-79
2023/07/26 01:25:32;;;;;;;;;;;;;;;30.51;42.01;98334.84;5052996;28;20374;-77
2023/07/26 01:27:57;;;;;;;;;;;;;;;30.50;42.01;98330.53;5052898;28;19908;-77
2023/07/26 01:30:23;;;;;;;;;;;;;;;30.49;42.08;98322.72;5052855;28;20324;-77
2023/07/26 01:32:50;;;;;;;;;;;;;;;30.48;42.13;98326.56;5052830;28;19939;-77
2023/07/26 01:35:16;;;;;;;;;;;;;;;30.47;41.92;98328.50;5053175;28;19908;-78
2023/07/26 01:37:42;;;;;;;;;;;;;;;30.50;41.74;98327.03;5053081;28;19959;-78
2023/07/26 01:40:08;;;;;;;;;;;;;;;30.48;41.50;98326.56;5035362;28;19939;-77
2023/07/26 01:42:34;;;;;;;;;;;;;;;30.46;41.84;98324.16;5042831;28;19961;-78
2023/07/26 01:45:03;;;;;;;;;;;;;;;30.46;41.79;98329.59;5064541;28;19915;-78
2023/07/26 01:47:28;;;;;;;;;;;;;;;30.46;41.80;98323.34;5053467;28;19941;-78
2023/07/26 01:49:54;;;;;;;;;;;;;;;30.43;41.58;98318.59;5035194;28;19916;-78
2023/07/26 01:52:19;;;;;;;;;;;;;;;30.44;41.35;98325.63;5053335;28;19912;-76
2023/07/26 01:54:44;;;;;;;;;;;;;;;30.38;41.47;98333.22;5052632;28;19970;-78
2023/07/26 01:57:09;;;;;;;;;;;;;;;30.38;41.39;98325.06;5052559;28;19909;-77
2023/07/26 01:59:35;;;;;;;;;;;;;;;30.41;41.09;98334.47;5052191;28;19960;-77
2023/07/26 02:02:00;;;;;;;;;;;;;;;30.38;41.18;98333.22;5034532;28;19962;-77
2023/07/26 02:04:25;;;;;;;;;;;;;;;30.35;40.98;98331.97;5052283;28;19999;-77
2023/07/26 02:06:51;;;;;;;;;;;;;;;30.36;41.18;98335.50;5057933;28;19909;-78
2023/07/26 02:09:16;;;;;;;;;;;;;;;30.36;41.25;98328.13;5060800;28;19947;-79
2023/07/26 02:11:42;;;;;;;;;;;;;;;30.36;41.28;98328.13;5052406;28;19909;-78
2023/07/26 02:14:07;;;;;;;;;;;;;;;30.36;41.12;98330.03;5052036;28;20003;-78
2023/07/26 02:16:32;;;;;;;;;;;;;;;30.38;41.16;98332.44;5052395;28;20343;-77
2023/07/26 02:18:57;;;;;;;;;;;;;;;30.39;40.62;98334.03;5051867;28;19908;-78
2023/07/26 02:21:22;;;;;;;;;;;;;;;30.38;40.99;98335.16;5051985;28;19963;-78
2023/07/26 02:23:48;;;;;;;;;;;;;;;30.35;41.23;98331.19;5052079;28;20278;-78
2023/07/26 02:26:13;;;;;;;;;;;;;;;30.32;41.19;98332.66;5052331;28;19952;-78
2023/07/26 02:28:38;;;;;;;;;;;;;;;30.30;41.00;98328.66;5051777;28;20290;-79
2023/07/26 02:31:03;;;;;;;;;;;;;;;30.30;41.03;98337.63;5051836;28;19912;-78
2023/07/26 02:33:29;;;;;;;;;;;;;;;30.26;41.03;98344.09;5033990;28;19966;-77
2023/07/26 02:35:57;;;;;;;;;;;;;;;30.23;41.28;98339.31;5051782;28;19955;-78
2023/07/26 02:38:22;;;;;;;;;;;;;;;30.17;41.63;98346.91;5051867;28;20378;-78
2023/07/26 02:40:47;;;;;;;;;;;;;;;30.13;41.58;98356.88;5051835;28;19958;-78
2023/07/26 02:43:12;;;;;;;;;;;;;;;30.07;41.86;98360.94;5051783;28;20404;-78
2023/07/26 02:45:38;;;;;;;;;;;;;;;30.03;41.37;98360.00;5051731;28;20011;-78
2023/07/26 02:48:03;;;;;;;;;;;;;;;29.95;42.14;98364.38;5052004;28;20279;-78
2023/07/26 02:50:28;;;;;;;;;;;;;;;29.91;41.94;98363.47;5033976;28;19920;-77
2023/07/26 02:52:53;;;;;;;;;;;;;;;29.89;42.04;98357.56;5051755;28;20385;-76
2023/07/26 02:55:19;;;;;;;;;;;;;;;29.84;42.14;98348.78;5051817;28;19915;-78
2023/07/26 02:57:44;;;;;;;;;;;;;;;29.76;42.21;98355.09;5051549;28;19909;-78
2023/07/26 03:00:09;;;;;;;;;;;;;;;29.70;42.34;98352.56;5051826;28;20308;-78
2023/07/26 03:02:35;;;;;;;;;;;;;;;29.67;42.43;98350.50;5051706;28;19908;-78
2023/07/26 03:05:00;;;;;;;;;;;;;;;29.56;43.73;98354.75;5051459;28;19909;-76
2023/07/26 03:07:25;;;;;;;;;;;;;;;29.46;42.67;98352.44;5051358;28;20305;-79
2023/07/26 03:09:51;;;;;;;;;;;;;;;29.29;44.72;98347.09;5051347;28;20393;-78
2023/07/26 03:12:16;;;;;;;;;;;;;;;29.16;44.58;98361.72;5033428;28;19912;-76
2023/07/26 03:14:41;;;;;;;;;;;;;;;28.97;44.73;98351.25;5051477;28;19915;-76
2023/07/26 03:17:08;;;;;;;;;;;;;;;28.84;44.64;98346.84;5033616;28;19908;-77
2023/07/26 03:19:34;;;;;;;;;;;;;;;28.71;46.33;98359.47;5033470;28;19904;-77
2023/07/26 03:21:59;;;;;;;;;;;;;;;28.62;45.35;98362.22;5051273;28;19962;-76
2023/07/26 03:24:24;;;;;;;;;;;;;;;28.61;45.51;98365.28;5051356;28;20000;-79
2023/07/26 03:26:49;;;;;;;;;;;;;;;28.61;45.84;98359.84;5051262;28;19908;-77
2023/07/26 03:29:15;;;;;;;;;;;;;;;28.58;47.08;98372.16;5050923;28;19935;-78
2023/07/26 03:31:40;;;;;;;;;;;;;;;28.47;46.25;98366.28;5051188;28;19908;-77
2023/07/26 03:34:05;;;;;;;;;;;;;;;28.39;47.75;98364.38;5051215;28;19919;-78
2023/07/26 03:36:31;;;;;;;;;;;;;;;28.32;47.42;98363.28;5051145;28;20403;-77
2023/07/26 03:38:56;;;;;;;;;;;;;;;28.22;47.78;98358.94;5051289;28;20022;-78
2023/07/26 03:41:21;;;;;;;;;;;;;;;28.12;49.47;98357.34;5051240;28;19909;-78
2023/07/26 03:43:46;;;;;;;;;;;;;;;28.04;46.96;98360.09;5033127;28;19982;-79
2023/07/26 03:46:12;;;;;;;;;;;;;;;27.98;48.17;98356.75;5051138;28;19935;-77
2023/07/26 03:48:37;;;;;;;;;;;;;;;27.91;48.54;98361.84;5036961;28;19940;-78
2023/07/26 03:51:02;;;;;;;;;;;;;;;27.77;48.71;98374.78;5036825;28;20344;-77
2023/07/26 03:53:27;;;;;;;;;;;;;;;27.73;49.49;98369.19;5054640;28;19994;-77
2023/07/26 03:55:53;;;;;;;;;;;;;;;27.69;49.41;98375.59;5036808;28;19983;-78
2023/07/26 03:58:18;;;;;;;;;;;;;;;27.67;48.55;98375.09;5054510;28;20389;-78
2023/07/26 04:00:43;;;;;;;;;;;;;;;27.70;47.92;98386.13;5054665;28;19916;-79
2023/07/26 04:03:08;;;;;;;;;;;;;;;27.69;48.03;98376.38;5054568;28;20377;-78
2023/07/26 04:05:35;;;;;;;;;;;;;;;27.68;49.35;98372.06;5037022;28;19920;-79
2023/07/26 04:08:00;;;;;;;;;;;;;;;27.63;49.23;98371.44;5036572;28;20366;-76
2023/07/26 04:10:26;;;;;;;;;;;;;;;27.54;47.89;98372.19;5036611;28;19948;-78
2023/07/26 04:12:52;;;;;;;;;;;;;;;27.51;48.44;98361.97;5054175;28;19938;-76
2023/07/26 04:15:17;;;;;;;;;;;;;;;27.38;49.62;98362.91;5054386;28;19912;-78
2023/07/26 04:17:42;;;;;;;;;;;;;;;27.31;48.61;98357.16;5036409;28;20008;-79
2023/07/26 04:20:08;;;;;;;;;;;;;;;27.27;48.65;98360.81;5054204;28;19987;-79
2023/07/26 04:22:33;;;;;;;;;;;;;;;27.22;49.47;98361.75;5054332;28;19915;-78
2023/07/26 04:24:59;;;;;;;;;;;;;;;27.28;48.93;98363.19;5054396;28;19908;-78
2023/07/26 04:27:24;;;;;;;;;;;;;;;27.29;49.19;98359.38;5054221;28;19987;-78
2023/07/26 04:29:50;;;;;;;;;;;;;;;27.31;48.36;98362.56;5036352;28;19939;-77
2023/07/26 04:32:15;;;;;;;;;;;;;;;27.30;49.10;98350.13;5053872;28;20341;-79
2023/07/26 04:34:40;;;;;;;;;;;;;;;27.28;49.70;98352.34;5053846;28;19909;-78
2023/07/26 04:37:05;;;;;;;;;;;;;;;27.26;49.37;98360.00;5053939;28;20317;-79
2023/07/26 04:39:31;;;;;;;;;;;;;;;27.26;49.31;98356.50;5035906;28;19938;-78
2023/07/26 04:41:56;;;;;;;;;;;;;;;27.29;49.99;98342.31;5053681;28;19900;-78
2023/07/26 04:44:21;;;;;;;;;;;;;;;27.32;49.61;98344.38;5053518;28;20317;-78
2023/07/26 04:46:47;;;;;;;;;;;;;;;27.36;49.66;98339.94;5053583;28;19958;-78
2023/07/26 04:49:12;;;;;;;;;;;;;;;27.45;48.99;98352.38;5053553;28;19908;-79
2023/07/26 04:51:37;;;;;;;;;;;;;;;27.53;49.35;98342.69;5053390;28;20385;-78
2023/07/26 04:54:05;;;;;;;;;;;;;;;27.66;48.80;98343.69;5035468;28;19920;-79
2023/07/26 04:56:30;;;;;;;;;;;;;;;27.72;48.45;98337.78;5053592;28;19915;-78
2023/07/26 04:58:56;;;;;;;;;;;;;;;27.77;48.39;98337.59;5034363;28;20364;-78
2023/07/26 05:01:22;;;;;;;;;;;;;;;27.85;48.29;98339.53;5053553;28;19919;-78
2023/07/26 05:03:47;;;;;;;;;;;;;;;27.94;48.24;98336.00;5054077;28;19915;-78
2023/07/26 05:06:12;;;;;;;;;;;;;;;28.00;48.79;98335.50;5035703;28;19913;-77
2023/07/26 05:08:38;;;;;;;;;;;;;;;28.08;48.71;98336.63;5053230;28;19909;-78
2023/07/26 05:11:03;;;;;;;;;;;;;;;28.15;48.11;98329.56;5053178;28;19912;-79
2023/07/26 05:13:28;;;;;;;;;;;;;;;28.24;48.46;98326.91;5053377;28;19917;-76
2023/07/26 05:15:54;;;;;;;;;;;;;;;28.29;48.05;98332.16;5035485;28;19931;-77
2023/07/26 05:18:19;;;;;;;;;;;;;;;28.35;48.00;98325.44;5060226;28;20393;-77
2023/07/26 05:20:44;;;;;;;;;;;;;;;28.44;47.73;98334.34;5068513;28;19908;-78
2023/07/26 05:23:10;;;;;;;;;;;;;;;28.54;47.24;98333.19;5055443;28;20400;-76
2023/07/26 05:25:35;;;;;;;;;;;;;;;28.65;47.60;98333.63;5053045;28;20369;-78
2023/07/26 05:28:00;;;;;;;;;;;;;;;28.75;46.91;98325.91;5052869;28;19915;-78
2023/07/26 05:30:26;;;;;;;;;;;;;;;28.79;46.79;98324.13;5052745;28;19909;-78
2023/07/26 05:32:51;;;;;;;;;;;;;;;28.90;46.25;98329.22;5052622;28;19966;-77
2023/07/26 05:35:16;;;;;;;;;;;;;;;28.98;45.62;98331.09;5052767;28;20329;-76
2023/07/26 05:37:42;;;;;;;;;;;;;;;29.06;46.42;98322.13;5052855;28;19988;-77
2023/07/26 05:40:07;;;;;;;;;;;;;;;29.10;45.47;98318.41;5052725;28;19908;-79
2023/07/26 05:42:33;;;;;;;;;;;;;;;29.19;45.42;98314.84;5052656;28;20042;-77
2023/07/26 05:44:58;;;;;;;;;;;;;;;29.26;45.47;98301.53;5052475;28;19908;-77
2023/07/26 05:47:24;;;;;;;;;;;;;;;29.33;46.42;98302.59;5052551;28;19916;-78
2023/07/26 05:49:49;;;;;;;;;;;;;;;29.38;45.91;98296.16;5034441;28;19948;-78
2023/07/26 05:52:15;;;;;;;;;;;;;;;29.42;46.29;98289.72;5052381;28;20377;-78
2023/07/26 05:54:40;;;;;;;;;;;;;;;29.50;45.84;98281.84;5052395;28;20427;-77
2023/07/26 05:57:05;;;;;;;;;;;;;;;29.55;44.48;98274.28;5052517;28;19908;-77
2023/07/26 05:59:31;;;;;;;;;;;;;;;29.60;45.11;98271.34;5049859;28;19924;-76
2023/07/26 06:01:58;;;;;;;;;;;;;;;29.67;44.58;98273.53;5052287;28;19913;-78
2023/07/26 06:04:23;;;;;;;;;;;;;;;29.72;44.83;98270.59;5033005;28;20306;-79
2023/07/26 06:06:48;;;;;;;;;;;;;;;29.77;43.58;98253.31;5051799;28;19912;-79
2023/07/26 06:09:15;;;;;;;;;;;;;;;29.80;43.88;98255.34;5047677;28;19999;-78
2023/07/26 06:11:42;;;;;;;;;;;;;;;29.86;43.58;98257.53;5049676;28;20383;-78
2023/07/26 06:14:07;;;;;;;;;;;;;;;29.85;43.41;98263.31;5050898;28;20006;-77
2023/07/26 06:16:32;;;;;;;;;;;;;;;29.92;43.81;98258.91;5050485;28;20001;-78
2023/07/26 06:18:57;;;;;;;;;;;;;;;30.00;43.63;98252.56;5033243;28;19909;-79
2023/07/26 06:21:23;;;;;;;;;;;;;;;30.08;43.63;98247.41;5034261;28;20008;-77
2023/07/26 06:23:48;;;;;;;;;;;;;;;30.15;43.47;98255.81;5052097;28;19909;-79
2023/07/26 06:26:13;;;;;;;;;;;;;;;30.22;43.98;98256.03;5045582;28;19915;-79
2023/07/26 06:28:39;;;;;;;;;;;;;;;30.27;43.58;98256.63;5051585;28;20443;-77
2023/07/26 06:31:04;;;;;;;;;;;;;;;30.35;43.36;98263.88;5052224;28;19916;-77
2023/07/26 06:33:29;;;;;;;;;;;;;;;30.44;43.48;98269.22;5051815;28;20310;-77
2023/07/26 06:35:55;;;;;;;;;;;;;;;30.52;43.46;98281.97;5051826;28;19908;-78
2023/07/26 06:38:20;;;;;;;;;;;;;;;30.59;43.42;98290.41;5051429;28;19909;-77
2023/07/26 06:40:46;;;;;;;;;;;;;;;30.67;43.08;98280.53;5051444;28;19912;-78
2023/07/26 06:43:11;;;;;;;;;;;;;;;30.74;42.69;98278.03;5046724;28;19909;-76
2023/07/26 06:45:37;;;;;;;;;;;;;;;30.81;42.53;98274.72;5047136;28;20325;-77
2023/07/26 06:48:02;;;;;;;;;;;;;;;30.90;42.56;98267.22;5051457;28;19920;-76
2023/07/26 06:50:27;;;;;;;;;;;;;;;31.01;42.37;98265.63;5044771;28;20313;-78
2023/07/26 06:52:53;;;;;;;;;;;;;;;31.15;41.90;98271.53;5033027;28;19995;-76
2023/07/26 06:55:18;;;;;;;;;;;;;;;31.33;41.48;98274.00;5051417;28;19962;-76
2023/07/26 06:57:43;;;;;;;;;;;;;;;31.49;41.16;98262.00;5051247;28;19916;-76
2023/07/26 07:00:12;;;;;;;;;;;;;;;31.66;40.63;98273.75;5051008;28;20352;-78
2023/07/26 07:02:38;;;;;;;;;;;;;;;31.79;40.71;98278.84;5027986;28;20003;-77
2023/07/26 07:05:03;;;;;;;;;;;;;;;31.83;40.26;98279.75;5039125;28;19992;-76
2023/07/26 07:07:29;;;;;;;;;;;;;;;31.85;41.09;98280.19;5050075;28;19956;-76
2023/07/26 07:09:54;;;;;;;;;;;;;;;31.87;40.75;98288.81;5043428;28;20441;-78
2023/07/26 07:12:19;;;;;;;;;;;;;;;31.89;40.73;98288.47;5047974;28;19913;-79
2023/07/26 07:14:44;;;;;;;;;;;;;;;31.85;41.04;98293.84;5049508;28;19974;-78
2023/07/26 07:17:10;;;;;;;;;;;;;;;31.80;41.06;98305.00;5049347;28;19943;-78
2023/07/26 07:19:35;;;;;;;;;;;;;;;31.68;41.42;98294.09;5047283;28;19912;-78
2023/07/26 07:22:00;;;;;;;;;;;;;;;31.73;41.30;98298.56;5049127;28;19943;-78
2023/07/26 07:24:25;;;;;;;;;;;;;;;31.77;42.33;98296.72;5052694;28;19919;-78
2023/07/26 07:26:51;;;;;;;;;;;;;;;31.78;41.62;98287.38;5045632;28;19927;-78
2023/07/26 07:29:16;;;;;;;;;;;;;;;31.78;41.89;98290.91;5020672;28;20316;-78
2023/07/26 07:31:41;;;;;;;;;;;;;;;31.79;41.66;98287.03;5050742;28;19919;-78
2023/07/26 07:34:07;;;;;;;;;;;;;;;31.82;41.16;98286.34;5052205;28;20393;-78
2023/07/26 07:36:32;;;;;;;;;;;;;;;31.80;41.51;98285.09;5051834;28;19913;-77
2023/07/26 07:38:57;;;;;;;;;;;;;;;31.80;41.27;98276.91;5054371;28;20417;-77
2023/07/26 07:41:23;;;;;;;;;;;;;;;31.88;41.17;98270.50;5051592;28;19996;-78
2023/07/26 07:43:48;;;;;;;;;;;;;;;31.94;41.12;98271.84;5053631;28;20355;-78
2023/07/26 07:46:13;;;;;;;;;;;;;;;32.05;40.94;98274.88;5054097;28;19912;-78
2023/07/26 07:48:40;;;;;;;;;;;;;;;32.14;40.64;98270.03;5052127;28;20356;-77
2023/07/26 07:51:06;;;;;;;;;;;;;;;32.23;40.38;98274.19;5053242;28;20361;-77
2023/07/26 07:53:31;;;;;;;;;;;;;;;32.30;40.33;98272.81;5050244;28;20003;-77
2023/07/26 07:55:56;;;;;;;;;;;;;;;32.36;40.36;98276.88;5054626;28;19909;-77
2023/07/26 07:58:21;;;;;;;;;;;;;;;32.41;40.33;98271.94;5054506;28;19931;-76
2023/07/26 08:00:47;;;;;;;;;;;;;;;32.48;40.06;98268.56;5053588;28;20405;-76
2023/07/26 08:03:12;;;;;;;;;;;;;;;32.56;40.10;98275.78;5048970;28;19913;-77
2023/07/26 08:05:38;;;;;;;;;;;;;;;32.65;39.79;98265.47;5055196;28;19923;-78
2023/07/26 08:08:03;;;;;;;;;;;;;;;32.74;39.90;98262.56;5069939;28;19951;-76
2023/07/26 08:10:28;;;;;;;;;;;;;;;32.82;39.20;98259.69;5061443;28;19916;-76
2023/07/26 08:12:54;;;;;;;;;;;;;;;32.91;39.30;98255.94;5052538;28;20016;-79
2023/07/26 08:15:19;;;;;;;;;;;;;;;33.04;39.41;98246.47;5053811;28;19963;-76
2023/07/26 08:17:44;;;;;;;;;;;;;;;33.10;38.06;98245.03;5035836;28;20373;-76
2023/07/26 08:20:10;;;;;;;;;;;;;;;33.08;38.31;98245.41;5053738;28;19908;-77
2023/07/26 08:22:36;;;;;;;;;;;;;;;33.17;38.77;98247.94;5021966;28;19916;-77
2023/07/26 08:25:01;;;;;;;;;;;;;;;33.20;37.99;98240.94;5033773;28;19923;-78
2023/07/26 08:27:26;;;;;;;;;;;;;;;33.26;38.30;98229.34;5039024;28;19912;-79
2023/07/26 08:29:52;;;;;;;;;;;;;;;33.39;38.20;98232.78;5052084;28;19974;-78
2023/07/26 08:32:17;;;;;;;;;;;;;;;33.52;38.24;98228.75;5044788;28;19963;-75
2023/07/26 08:34:43;;;;;;;;;;;;;;;33.66;37.75;98222.75;5053852;28;20373;-78
2023/07/26 08:37:09;;;;;;;;;;;;;;;33.81;37.75;98213.66;5048693;28;19913;-79
2023/07/26 08:39:34;;;;;;;;;;;;;;;33.92;37.73;98219.34;5052650;28;19919;-78
2023/07/26 08:42:00;;;;;;;;;;;;;;;34.05;37.77;98224.28;5050774;28;19913;-79
2023/07/26 08:44:25;;;;;;;;;;;;;;;34.18;36.48;98215.88;5052344;28;19965;-77
2023/07/26 08:46:52;;;;;;;;;;;;;;;34.30;37.18;98205.53;5052197;28;19966;-75
2023/07/26 08:49:18;;;;;;;;;;;;;;;34.42;36.56;98199.88;5052130;28;19928;-77
2023/07/26 08:51:43;;;;;;;;;;;;;;;34.54;37.12;98200.84;5052136;28;19913;-78
2023/07/26 08:54:09;;;;;;;;;;;;;;;34.67;36.76;98194.78;5053562;28;19919;-75
2023/07/26 08:56:35;;;;;;;;;;;;;;;34.78;35.88;98188.63;5053294;28;19912;-77
2023/07/26 08:59:00;;;;;;;;;;;;;;;34.90;36.51;98182.97;5053388;28;19923;-78
2023/07/26 09:01:26;;;;;;;;;;;;;;;35.05;36.14;98190.22;5051628;28;19919;-78
2023/07/26 09:03:51;;;;;;;;;;;;;;;35.19;35.97;98175.91;5052253;28;19920;-77
2023/07/26 09:06:17;;;;;;;;;;;;;;;35.33;35.46;98176.88;5052934;28;19917;-78
2023/07/26 09:08:42;;;;;;;;;;;;;;;35.48;35.71;98177.81;5042193;28;19999;-78
2023/07/26 09:11:20;;;;;;;;;;;;;;;35.64;35.46;98166.59;5053506;28;19908;-78
2023/07/26 09:13:51;;;;;;;;;;;;;;;35.82;35.21;98161.34;5053298;28;20409;-78
2023/07/26 09:16:18;;;;;;;;;;;;;;;36.01;34.09;98161.09;5050639;28;20393;-78
2023/07/26 09:18:59;;;;;;;;;;;;;;;36.17;34.91;98155.34;5041430;28;20026;-76
2023/07/26 09:21:31;;;;;;;;;;;;;;;36.40;34.63;98144.13;5051468;28;19967;-77
2023/07/26 09:23:58;;;;;;;;;;;;;;;36.63;33.84;98144.69;5049945;28;19965;-78
2023/07/26 09:26:42;;;;;;;;;;;;;;;36.84;33.33;98138.53;5032778;28;19927;-77
2023/07/26 09:29:11;;;;;;;;;;;;;;;37.08;33.37;98120.53;5044100;28;20385;-79
2023/07/26 09:31:42;;;;;;;;;;;;;;;37.28;33.08;98126.53;5051559;28;19944;-78
2023/07/26 09:34:08;;;;;;;;;;;;;;;37.45;30.69;98118.31;5052454;28;19913;-78
2023/07/26 09:36:40;;;;;;;;;;;;;;;37.67;30.17;98110.88;5049144;28;19913;-78
2023/07/26 09:39:05;;;;;;;;;;;;;;;37.80;28.00;98094.75;5050367;28;19988;-77
2023/07/26 09:41:30;;;;;;;;;;;;;;;37.94;28.79;98100.28;5052236;28;19944;-77
2023/07/26 09:43:59;;;;;;;;;;;;;;;38.08;26.93;98086.50;5052045;28;20415;-79
2023/07/26 09:46:24;;;;;;;;;;;;;;;38.24;26.92;98096.34;5048639;28;20333;-78
2023/07/26 09:48:57;;;;;;;;;;;;;;;38.43;26.48;98090.38;5045610;28;19913;-77
2023/07/26 09:51:24;;;;;;;;;;;;;;;38.51;25.81;98085.63;5051659;28;19912;-76
2023/07/26 09:53:50;;;;;;;;;;;;;;;38.71;25.65;98086.78;5031493;28;19967;-77
2023/07/26 09:56:15;;;;;;;;;;;;;;;38.92;26.09;98078.41;5052531;28;20312;-76
2023/07/26 09:58:42;;;;;;;;;;;;;;;39.10;25.98;98067.28;5041637;28;20314;-76
2023/07/26 10:01:11;;;;;;;;;;;;;;;39.24;24.87;98080.22;5014489;28;19916;-77
2023/07/26 10:03:39;;;;;;;;;;;;;;;39.22;24.05;98063.28;5047926;28;20308;-78
2023/07/26 10:06:04;;;;;;;;;;;;;;;39.36;24.17;98061.19;5051461;28;19909;-77
2023/07/26 10:08:30;;;;;;;;;;;;;;;39.53;24.60;98051.25;5051431;28;19920;-77
2023/07/26 10:10:56;;;;;;;;;;;;;;;39.71;24.31;98049.13;5051279;28;19913;-78
2023/07/26 10:13:23;;;;;;;;;;;;;;;39.87;23.92;98054.13;5051319;28;19917;-78
2023/07/26 10:15:50;;;;;;;;;;;;;;;39.99;23.40;98041.78;5024355;28;20317;-78
2023/07/26 10:18:17;;;;;;;;;;;;;;;40.20;23.30;98041.59;5026540;28;19916;-78
2023/07/26 10:20:43;;;;;;;;;;;;;;;40.30;23.22;98037.13;5051363;28;19919;-78
2023/07/26 10:23:10;;;;;;;;;;;;;;;40.48;23.07;98046.03;5051242;28;19912;-78
2023/07/26 10:25:37;;;;;;;;;;;;;;;40.58;22.50;98044.34;5050840;28;19917;-79
2023/07/26 10:28:02;;;;;;;;;;;;;;;40.66;22.31;98043.03;5030712;28;20348;-76
2023/07/26 10:30:28;;;;;;;;;;;;;;;40.80;20.79;98033.78;5048241;28;19913;-79
2023/07/26 10:32:53;;;;;;;;;;;;;;;40.90;20.63;98041.97;5033593;28;20294;-78
2023/07/26 10:35:28;;;;;;;;;;;;;;;40.85;20.49;98034.09;5051400;28;19927;-77
2023/07/26 10:37:55;;;;;;;;;;;;;;;41.03;20.56;98027.56;5050220;28;20291;-76
2023/07/26 10:40:31;;;;;;;;;;;;;;;41.25;21.36;98026.06;5027878;28;19913;-77
2023/07/26 10:42:56;;;;;;;;;;;;;;;41.35;19.95;98014.03;5043852;28;20003;-79
2023/07/26 10:45:43;;;;;;;;;;;;;;;41.44;20.35;98005.19;5051541;28;19935;-77
2023/07/26 10:48:26;;;;;;;;;;;;;;;41.49;21.03;98005.47;5050102;28;19920;-79
2023/07/26 10:50:54;;;;;;;;;;;;;;;41.60;20.11;98008.06;5033460;28;19920;-78
2023/07/26 10:53:26;;;;;;;;;;;;;;;41.64;18.87;98003.31;5045178;28;20001;-76
2023/07/26 10:55:51;;;;;;;;;;;;;;;41.80;19.08;97991.53;5035865;28;20309;-76
2023/07/26 10:58:17;;;;;;;;;;;;;;;42.04;19.62;97992.28;5054569;28;19987;-78
2023/07/26 11:00:42;;;;;;;;;;;;;;;42.27;20.17;97989.44;5037330;28;20317;-77
2023/07/26 11:03:10;;;;;;;;;;;;;;;42.46;18.99;97994.25;5037475;28;19909;-79
2023/07/26 11:05:38;;;;;;;;;;;;;;;42.54;19.45;97994.09;5048615;28;19912;-77
2023/07/26 11:08:07;;;;;;;;;;;;;;;42.61;19.12;97991.16;5037428;28;19904;-77
2023/07/26 11:10:33;;;;;;;;;;;;;;;42.66;18.34;97991.44;5053246;28;19912;-79
2023/07/26 11:13:08;;;;;;;;;;;;;;;42.62;19.04;98001.06;5054254;28;20011;-79
2023/07/26 11:15:34;;;;;;;;;;;;;;;42.63;17.49;97989.53;5053328;28;19913;-76
2023/07/26 11:17:59;;;;;;;;;;;;;;;42.73;17.22;97988.50;5055317;28;19909;-76
2023/07/26 11:20:25;;;;;;;;;;;;;;;42.72;18.41;97978.63;5053715;28;19917;-79
2023/07/26 11:22:50;;;;;;;;;;;;;;;42.94;18.88;97975.38;5053398;28;20439;-78
2023/07/26 11:25:16;;;;;;;;;;;;;;;43.02;17.25;97974.78;5054249;28;20381;-77
2023/07/26 11:27:41;;;;;;;;;;;;;;;43.10;18.21;97961.50;5053580;28;19917;-78
2023/07/26 11:30:13;;;;;;;;;;;;;;;43.29;18.95;97971.78;5055316;28;19909;-78
2023/07/26 11:32:49;;;;;;;;;;;;;;;43.27;18.69;97954.78;5053538;28;20004;-75
2023/07/26 11:35:16;;;;;;;;;;;;;;;43.23;17.41;97967.94;5054710;28;19912;-78
2023/07/26 11:37:55;;;;;;;;;;;;;;;43.12;18.46;97948.75;5054352;28;20020;-76
2023/07/26 11:40:20;;;;;;;;;;;;;;;43.21;18.15;97942.59;5053278;28;19913;-78
2023/07/26 11:42:46;;;;;;;;;;;;;;;43.21;18.31;97953.69;5064262;28;19935;-76
2023/07/26 11:45:12;;;;;;;;;;;;;;;43.11;17.65;97943.63;5066473;28;19912;-75
2023/07/26 11:47:38;;;;;;;;;;;;;;;43.22;18.41;97940.59;5042649;28;20412;-79
2023/07/26 11:50:04;;;;;;;;;;;;;;;43.27;17.85;97934.53;5054222;28;19912;-78
2023/07/26 11:52:29;;;;;;;;;;;;;;;43.31;17.33;97941.56;5051966;28;19919;-78
2023/07/26 11:54:55;;;;;;;;;;;;;;;43.29;18.41;97930.09;5053359;28;19916;-78
2023/07/26 11:57:21;;;;;;;;;;;;;;;43.33;17.53;97919.69;5052866;28;20479;-78
2023/07/26 11:59:46;;;;;;;;;;;;;;;43.40;16.97;97918.72;5054090;28;19960;-76
2023/07/26 12:02:11;;;;;;;;;;;;;;;43.33;17.33;97916.13;5044560;28;20496;-77
2023/07/26 12:04:37;;;;;;;;;;;;;;;43.39;17.49;97897.69;5053187;28;19987;-77
2023/07/26 12:07:05;;;;;;;;;;;;;;;43.65;17.35;97893.03;5051256;28;19935;-76
2023/07/26 12:09:30;;;;;;;;;;;;;;;43.87;17.72;97893.25;5049912;28;20407;-78
2023/07/26 12:11:57;;;;;;;;;;;;;;;44.05;16.71;97894.31;5053689;28;19912;-79
2023/07/26 12:14:23;;;;;;;;;;;;;;;44.18;17.63;97897.13;5052927;28;19917;-75
2023/07/26 12:16:49;;;;;;;;;;;;;;;44.02;17.53;97892.41;5034259;28;19996;-78
2023/07/26 12:19:15;;;;;;;;;;;;;;;43.72;17.33;97890.84;5049932;28;20047;-76
2023/07/26 12:21:40;;;;;;;;;;;;;;;43.77;17.31;97889.53;5053135;28;20011;-77
2023/07/26 12:24:06;;;;;;;;;;;;;;;43.67;17.65;97891.41;5024651;28;19935;-77
2023/07/26 12:26:35;;;;;;;;;;;;;;;43.75;17.75;97875.28;5052664;28;19989;-78
2023/07/26 12:29:03;;;;;;;;;;;;;;;43.77;17.55;97885.97;5052325;28;19930;-76
2023/07/26 12:31:35;;;;;;;;;;;;;;;43.85;17.96;97871.44;5053681;28;19963;-77
2023/07/26 12:34:01;;;;;;;;;;;;;;;43.92;17.03;97868.47;5047786;28;20309;-75
2023/07/26 12:36:30;;;;;;;;;;;;;;;44.07;17.34;97865.28;5045175;28;19919;-78
2023/07/26 12:38:56;;;;;;;;;;;;;;;44.00;17.36;97864.25;5051191;28;19987;-77
2023/07/26 12:41:22;;;;;;;;;;;;;;;43.85;17.93;97859.53;5052521;28;19912;-78
2023/07/26 12:43:54;;;;;;;;;;;;;;;43.81;17.44;97867.19;5052438;28;19965;-78